createdAt,value
2023-11-07T00:00:08.749Z,12.50
2023-11-07T00:02:37.094Z,16.70
2023-11-07T00:05:05.203Z,15.90
2023-11-07T00:07:32.824Z,11.50
2023-11-07T00:10:00.427Z,14.50
2023-11-07T00:12:28.016Z,14.40
2023-11-07T00:14:55.637Z,14.10
2023-11-07T00:17:23.220Z,12.30
2023-11-07T00:19:50.831Z,13.10
2023-11-07T00:22:18.387Z,18.10
2023-11-07T00:24:46.622Z,12.90
2023-11-07T00:27:14.730Z,14.80
2023-11-07T00:29:42.241Z,14.30
2023-11-07T00:32:09.739Z,12.30
2023-11-07T00:34:37.485Z,16.80
2023-11-07T00:37:05.015Z,12.90
2023-11-07T00:39:32.534Z,13.30
2023-11-07T00:42:00.154Z,10.60
2023-11-07T00:44:27.799Z,11.70
2023-11-07T00:46:55.336Z,13.40
2023-11-07T00:49:23.022Z,12.60
2023-11-07T00:51:50.548Z,15.20
2023-11-07T00:54:18.132Z,13.20
2023-11-07T00:56:45.745Z,12.10
2023-11-07T00:59:13.657Z,13.20
2023-11-07T01:01:42.072Z,15.00
2023-11-07T01:04:09.867Z,15.70
2023-11-07T01:06:37.674Z,11.50
2023-11-07T01:09:05.635Z,14.90
2023-11-07T01:11:33.441Z,11.90
2023-11-07T01:14:01.060Z,16.50
2023-11-07T01:16:28.579Z,11.80
2023-11-07T01:18:56.896Z,11.20
2023-11-07T01:21:25.101Z,12.60
2023-11-07T01:23:52.631Z,12.00
2023-11-07T01:26:20.302Z,12.10
2023-11-07T01:28:47.792Z,14.20
2023-11-07T01:31:15.277Z,13.00
2023-11-07T01:33:43.544Z,14.80
2023-11-07T01:36:12.010Z,14.30
2023-11-07T01:38:39.623Z,15.70
2023-11-07T01:41:07.240Z,16.80
2023-11-07T01:43:34.780Z,15.80
2023-11-07T01:46:04.273Z,15.10
2023-11-07T01:48:32.243Z,14.30
2023-11-07T01:50:59.981Z,10.70
2023-11-07T01:53:27.527Z,9.40
2023-11-07T01:55:55.298Z,8.20
2023-11-07T01:58:23.128Z,9.10
2023-11-07T02:00:50.775Z,9.00
2023-11-07T02:03:18.506Z,9.20
2023-11-07T02:05:46.249Z,10.30
2023-11-07T02:08:13.776Z,8.80
2023-11-07T02:10:42.294Z,8.40
2023-11-07T02:13:09.792Z,8.10
2023-11-07T02:15:39.457Z,9.40
2023-11-07T02:18:07.876Z,8.90
2023-11-07T02:20:39.860Z,10.70
2023-11-07T02:23:11.453Z,11.00
2023-11-07T02:25:40.271Z,9.90
2023-11-07T02:28:08.560Z,15.10
2023-11-07T02:30:36.210Z,14.70
2023-11-07T02:33:06.212Z,12.60
2023-11-07T02:35:34.763Z,15.30
2023-11-07T02:38:02.352Z,14.00
2023-11-07T02:40:29.878Z,13.60
2023-11-07T02:42:57.516Z,12.30
2023-11-07T02:45:25.164Z,15.30
2023-11-07T02:47:52.860Z,10.70
2023-11-07T02:50:20.457Z,10.10
2023-11-07T02:52:48.051Z,12.00
2023-11-07T02:55:15.845Z,13.60
2023-11-07T02:57:43.386Z,13.10
2023-11-07T03:00:11.692Z,15.30
2023-11-07T03:02:39.453Z,11.50
2023-11-07T03:05:07.574Z,10.80
2023-11-07T03:07:35.298Z,11.10
2023-11-07T03:10:03.032Z,10.60
2023-11-07T03:12:30.714Z,11.30
2023-11-07T03:14:58.480Z,12.50
2023-11-07T03:17:26.278Z,10.10
2023-11-07T03:19:54.666Z,12.70
2023-11-07T03:22:22.742Z,9.00
2023-11-07T03:24:50.384Z,9.30
2023-11-07T03:27:18.118Z,7.80
2023-11-07T03:29:45.736Z,6.50
2023-11-07T03:32:13.256Z,8.00
2023-11-07T03:34:41.374Z,10.30
2023-11-07T03:37:09.021Z,11.00
2023-11-07T03:39:36.710Z,11.50
2023-11-07T03:42:06.257Z,10.30
2023-11-07T03:44:36.193Z,13.00
2023-11-07T03:47:06.344Z,9.30
2023-11-07T03:49:34.110Z,13.60
2023-11-07T03:52:01.734Z,11.10
2023-11-07T03:54:29.369Z,13.50
2023-11-07T03:56:57.016Z,11.10
2023-11-07T03:59:24.572Z,14.20
2023-11-07T04:01:53.343Z,14.20
2023-11-07T04:04:21.692Z,13.60
2023-11-07T04:06:52.226Z,15.80
2023-11-07T04:09:20.386Z,15.70
2023-11-07T04:11:48.091Z,16.20
2023-11-07T04:14:19.336Z,16.50
2023-11-07T04:16:46.881Z,14.90
2023-11-07T04:19:14.532Z,16.80
2023-11-07T04:21:42.157Z,13.20
2023-11-07T04:24:09.884Z,12.30
2023-11-07T04:26:37.457Z,13.10
2023-11-07T04:29:05.727Z,11.70
2023-11-07T04:31:34.362Z,12.60
2023-11-07T04:34:02.334Z,9.60
2023-11-07T04:36:30.092Z,11.50
2023-11-07T04:38:57.796Z,13.00
2023-11-07T04:41:25.879Z,13.40
2023-11-07T04:43:54.309Z,10.90
2023-11-07T04:46:21.949Z,13.40
2023-11-07T04:48:49.643Z,12.50
2023-11-07T04:51:19.033Z,15.90
2023-11-07T04:53:46.646Z,14.60
2023-11-07T04:56:14.199Z,13.60
2023-11-07T04:58:56.615Z,16.00
2023-11-07T05:03:55.322Z,11.50
2023-11-07T05:06:23.263Z,14.40
2023-11-07T05:08:52.584Z,16.80
2023-11-07T05:11:20.410Z,15.80
2023-11-07T05:13:47.917Z,13.70
2023-11-07T05:16:15.518Z,10.90
2023-11-07T05:18:43.340Z,16.10
2023-11-07T05:21:11.241Z,11.70
2023-11-07T05:23:39.364Z,10.50
2023-11-07T05:26:07.652Z,14.90
2023-11-07T05:28:35.171Z,12.30
2023-11-07T05:31:02.724Z,11.70
2023-11-07T05:33:30.455Z,10.70
2023-11-07T05:35:58.085Z,9.90
2023-11-07T05:38:25.717Z,8.40
2023-11-07T05:40:53.249Z,11.10
2023-11-07T05:43:20.838Z,9.60
2023-11-07T05:45:48.413Z,7.10
2023-11-07T05:48:16.131Z,7.80
2023-11-07T05:50:43.986Z,7.30
2023-11-07T05:53:11.513Z,5.40
2023-11-07T05:55:39.209Z,6.00
2023-11-07T05:58:08.548Z,4.10
2023-11-07T06:00:36.277Z,4.90
2023-11-07T06:03:04.127Z,9.80
2023-11-07T06:05:31.791Z,6.60
2023-11-07T06:08:00.767Z,5.90
2023-11-07T06:10:28.507Z,6.40
2023-11-07T06:12:56.078Z,6.50
2023-11-07T06:15:25.224Z,6.60
2023-11-07T06:17:52.873Z,4.80
2023-11-07T06:20:23.214Z,10.70
2023-11-07T06:22:52.103Z,8.60
2023-11-07T06:25:20.645Z,9.20
2023-11-07T06:27:52.549Z,6.30
2023-11-07T06:30:21.020Z,8.70
2023-11-07T06:32:48.634Z,7.60
2023-11-07T06:35:16.258Z,9.00
2023-11-07T06:37:43.954Z,8.30
2023-11-07T06:40:19.557Z,8.60
2023-11-07T06:42:47.823Z,10.80
2023-11-07T06:45:15.412Z,6.50
2023-11-07T06:47:43.851Z,8.10
2023-11-07T06:50:12.238Z,9.70
2023-11-07T06:52:40.808Z,11.60
2023-11-07T06:55:10.466Z,11.90
2023-11-07T06:57:38.073Z,10.60
2023-11-07T07:00:10.892Z,10.70
2023-11-07T07:02:40.167Z,9.10
2023-11-07T07:05:14.897Z,12.30
2023-11-07T07:07:43.090Z,8.70
2023-11-07T07:10:12.087Z,10.30
2023-11-07T07:12:39.847Z,8.80
2023-11-07T07:15:07.676Z,10.70
2023-11-07T07:17:36.851Z,12.10
2023-11-07T07:20:12.737Z,13.50
2023-11-07T07:22:43.045Z,11.60
2023-11-07T07:25:17.014Z,12.10
2023-11-07T07:27:48.655Z,14.20
2023-11-07T07:30:23.459Z,17.00
2023-11-07T07:32:52.224Z,12.30
2023-11-07T07:35:22.673Z,12.90
2023-11-07T07:37:54.132Z,10.60
2023-11-07T07:40:27.668Z,18.10
2023-11-07T07:43:12.916Z,12.60
2023-11-07T07:45:44.395Z,15.80
2023-11-07T07:48:12.703Z,11.90
2023-11-07T07:50:44.256Z,14.90
2023-11-07T07:53:16.678Z,15.50
2023-11-07T07:55:45.243Z,12.90
2023-11-07T07:58:13.078Z,10.40
2023-11-07T08:00:41.424Z,11.90
2023-11-07T08:03:10.490Z,11.40
2023-11-07T08:05:42.649Z,14.70
2023-11-07T08:08:11.154Z,13.20
2023-11-07T08:10:39.434Z,11.20
2023-11-07T08:13:08.972Z,7.40
2023-11-07T08:15:37.426Z,11.60
2023-11-07T08:18:09.399Z,9.30
2023-11-07T08:20:39.784Z,11.90
2023-11-07T08:23:07.914Z,16.00
2023-11-07T08:25:35.954Z,15.00
2023-11-07T08:28:11.186Z,13.80
2023-11-07T08:30:39.424Z,15.20
2023-11-07T08:33:09.178Z,13.00
2023-11-07T08:35:40.243Z,13.00
2023-11-07T08:38:07.980Z,10.40
2023-11-07T08:43:23.001Z,6.60
2023-11-07T08:45:51.357Z,6.20
2023-11-07T08:48:19.024Z,7.50
2023-11-07T08:50:47.216Z,8.90
2023-11-07T08:53:14.999Z,8.60
2023-11-07T08:55:42.592Z,8.40
2023-11-07T08:58:10.242Z,5.90
2023-11-07T09:00:37.753Z,8.80
2023-11-07T09:03:05.645Z,9.40
2023-11-07T09:05:33.856Z,21.90
2023-11-07T09:08:04.191Z,9.30
2023-11-07T09:10:33.175Z,13.30
2023-11-07T09:13:00.765Z,14.20
2023-11-07T09:15:28.334Z,4.80
2023-11-07T09:17:56.159Z,6.30
2023-11-07T09:20:23.873Z,6.70
2023-11-07T09:22:51.447Z,7.80
2023-11-07T09:25:19.112Z,3.60
2023-11-07T09:27:48.426Z,7.00
2023-11-07T09:30:16.541Z,3.50
2023-11-07T09:32:45.425Z,3.60
2023-11-07T09:35:13.232Z,5.40
2023-11-07T09:37:41.482Z,3.30
2023-11-07T09:40:22.257Z,2.70
2023-11-07T09:42:52.741Z,6.30
2023-11-07T09:45:20.676Z,4.00
2023-11-07T09:47:49.403Z,4.20
2023-11-07T09:50:17.911Z,3.60
2023-11-07T09:52:46.064Z,2.70
2023-11-07T09:55:16.438Z,28.90
2023-11-07T09:57:48.532Z,4.10
2023-11-07T10:00:25.400Z,3.80
2023-11-07T10:02:54.171Z,3.80
2023-11-07T10:05:22.462Z,2.70
2023-11-07T10:07:50.975Z,4.20
2023-11-07T10:10:18.728Z,2.70
2023-11-07T10:12:48.612Z,4.80
2023-11-07T10:15:26.835Z,5.50
2023-11-07T10:18:01.884Z,4.00
2023-11-07T10:20:31.015Z,6.40
2023-11-07T10:22:59.312Z,6.10
2023-11-07T10:25:30.893Z,5.30
2023-11-07T10:28:02.984Z,5.20
2023-11-07T10:30:37.128Z,2.50
2023-11-07T10:33:08.303Z,3.00
2023-11-07T10:35:53.264Z,2.60
2023-11-07T10:38:21.145Z,6.10
2023-11-07T10:40:49.426Z,3.20
2023-11-07T10:43:36.590Z,3.00
2023-11-07T10:46:04.665Z,59.80
2023-11-07T10:48:40.299Z,5.30
2023-11-07T10:51:09.518Z,6.10
2023-11-07T10:53:40.242Z,4.40
2023-11-07T10:56:20.554Z,7.10
2023-11-07T10:58:50.190Z,3.50
2023-11-07T11:01:17.795Z,5.90
2023-11-07T11:03:45.915Z,3.80
2023-11-07T11:06:16.124Z,3.40
2023-11-07T11:08:45.046Z,5.60
2023-11-07T11:11:15.406Z,3.70
2023-11-07T11:13:43.381Z,2.80
2023-11-07T11:16:11.192Z,4.00
2023-11-07T11:18:46.517Z,5.10
2023-11-07T11:21:18.250Z,3.10
2023-11-07T11:23:46.960Z,7.10
2023-11-07T11:26:17.767Z,2.70
2023-11-07T11:28:45.370Z,2.20
2023-11-07T11:31:16.364Z,3.90
2023-11-07T11:33:44.626Z,4.20
2023-11-07T11:36:31.348Z,3.80
2023-11-07T11:38:59.050Z,2.40
2023-11-07T11:41:47.935Z,4.10
2023-11-07T11:44:16.533Z,9.20
2023-11-07T11:46:45.311Z,5.20
2023-11-07T11:49:18.131Z,6.60
2023-11-07T11:51:47.617Z,8.40
2023-11-07T11:54:15.871Z,5.50
2023-11-07T11:56:49.904Z,5.80
2023-11-07T11:59:42.554Z,3.90
2023-11-07T12:02:10.150Z,2.80
2023-11-07T12:04:38.173Z,2.50
2023-11-07T12:07:09.718Z,3.20
2023-11-07T12:09:38.261Z,7.70
2023-11-07T12:12:06.203Z,6.30
2023-11-07T12:14:33.931Z,3.90
2023-11-07T12:17:01.630Z,4.00
2023-11-07T12:19:30.137Z,5.80
2023-11-07T12:21:58.460Z,6.20
2023-11-07T12:24:26.630Z,5.90
2023-11-07T12:26:54.295Z,5.70
2023-11-07T12:29:31.405Z,3.00
2023-11-07T12:31:58.952Z,3.70
2023-11-07T12:34:33.553Z,7.00
2023-11-07T12:37:04.927Z,5.40
2023-11-07T12:39:33.180Z,3.70
2023-11-07T12:42:01.362Z,7.00
2023-11-07T12:44:28.985Z,7.40
2023-11-07T12:46:56.686Z,7.90
2023-11-07T12:49:24.780Z,10.10
2023-11-07T12:51:52.415Z,8.50
2023-11-07T12:54:27.563Z,9.80
2023-11-07T12:56:55.711Z,3.70
2023-11-07T12:59:23.271Z,9.20
2023-11-07T13:01:50.850Z,7.50
2023-11-07T13:04:19.360Z,6.90
2023-11-07T13:06:53.757Z,5.10
2023-11-07T13:09:32.684Z,8.20
2023-11-07T13:12:10.775Z,4.10
2023-11-07T13:14:39.400Z,8.80
2023-11-07T13:17:08.911Z,6.20
2023-11-07T13:19:36.814Z,5.20
2023-11-07T13:22:05.237Z,8.70
2023-11-07T13:24:32.914Z,7.60
2023-11-07T13:27:00.734Z,7.20
2023-11-07T13:29:28.687Z,7.60
2023-11-07T13:31:57.654Z,3.80
2023-11-07T13:34:27.925Z,5.70
2023-11-07T13:37:04.438Z,5.70
2023-11-07T13:39:34.201Z,5.20
2023-11-07T13:42:01.973Z,5.80
2023-11-07T13:44:29.655Z,5.40
2023-11-07T13:46:57.405Z,5.20
2023-11-07T13:49:24.996Z,8.30
2023-11-07T13:51:52.530Z,4.40
2023-11-07T13:54:20.371Z,3.30
2023-11-07T13:56:47.937Z,5.80
2023-11-07T13:59:15.547Z,6.90
2023-11-07T14:01:44.355Z,5.60
2023-11-07T14:04:12.831Z,8.90
2023-11-07T14:06:40.515Z,7.20
2023-11-07T14:09:10.110Z,4.30
2023-11-07T14:11:38.081Z,6.30
2023-11-07T14:14:06.716Z,5.00
2023-11-07T14:16:34.453Z,5.60
2023-11-07T14:19:06.168Z,5.20
2023-11-07T14:21:34.959Z,9.20
2023-11-07T14:24:03.207Z,8.80
2023-11-07T14:26:31.221Z,11.60
2023-11-07T14:29:02.565Z,7.10
2023-11-07T14:31:32.318Z,11.20
2023-11-07T14:34:00.482Z,13.40
2023-11-07T14:36:28.515Z,16.70
2023-11-07T14:38:56.221Z,9.80
2023-11-07T14:41:25.113Z,12.20
2023-11-07T14:43:52.667Z,18.50
2023-11-07T14:46:21.304Z,16.20
2023-11-07T14:48:49.127Z,15.50
2023-11-07T14:51:18.665Z,11.30
2023-11-07T14:53:46.380Z,12.50
2023-11-07T14:56:14.868Z,13.50
2023-11-07T14:58:42.472Z,9.00
2023-11-07T15:01:13.683Z,10.30
2023-11-07T15:03:41.357Z,14.90
2023-11-07T15:06:11.236Z,16.70
2023-11-07T15:08:39.604Z,25.20
2023-11-07T15:11:07.202Z,31.10
2023-11-07T15:13:34.702Z,34.60
2023-11-07T15:16:03.248Z,32.50
2023-11-07T15:18:32.251Z,27.00
2023-11-07T15:20:59.937Z,23.60
2023-11-07T15:23:27.550Z,25.20
2023-11-07T15:25:55.561Z,22.80
2023-11-07T15:28:23.127Z,17.10
2023-11-07T15:30:50.725Z,13.50
2023-11-07T15:33:18.402Z,16.30
2023-11-07T15:35:46.111Z,14.00
2023-11-07T15:38:14.494Z,18.60
2023-11-07T15:40:42.536Z,16.30
2023-11-07T15:43:10.518Z,25.40
2023-11-07T15:45:38.512Z,20.80
2023-11-07T15:48:09.659Z,23.60
2023-11-07T15:50:37.948Z,18.80
2023-11-07T15:53:08.695Z,20.30
2023-11-07T15:55:38.251Z,21.80
2023-11-07T15:58:06.147Z,20.90
2023-11-07T16:00:34.149Z,22.00
2023-11-07T16:03:02.015Z,22.20
2023-11-07T16:05:34.190Z,17.70
2023-11-07T16:08:02.242Z,23.30
2023-11-07T16:10:32.848Z,24.50
2023-11-07T16:13:00.716Z,22.00
2023-11-07T16:15:28.282Z,22.60
2023-11-07T16:17:56.144Z,19.20
2023-11-07T16:20:24.406Z,18.70
2023-11-07T16:22:52.053Z,19.50
2023-11-07T16:25:20.331Z,17.40
2023-11-07T16:27:48.300Z,16.50
2023-11-07T16:30:17.742Z,13.80
2023-11-07T16:32:45.581Z,17.90
2023-11-07T16:35:14.685Z,15.70
2023-11-07T16:37:43.403Z,18.40
2023-11-07T16:40:13.244Z,19.00
2023-11-07T16:42:45.598Z,19.50
2023-11-07T16:45:16.024Z,22.40
2023-11-07T16:47:44.444Z,23.80
2023-11-07T16:50:12.479Z,26.50
2023-11-07T16:52:41.355Z,24.80
2023-11-07T16:55:18.935Z,20.10
2023-11-07T16:57:46.594Z,15.10
2023-11-07T17:00:14.580Z,19.10
2023-11-07T17:02:42.505Z,18.00
2023-11-07T17:05:10.406Z,18.40
2023-11-07T17:07:38.112Z,18.00
2023-11-07T17:10:08.393Z,16.70
2023-11-07T17:12:36.317Z,20.80
2023-11-07T17:15:04.412Z,19.60
2023-11-07T17:17:32.098Z,20.90
2023-11-07T17:19:59.859Z,24.70
2023-11-07T17:22:27.385Z,21.80
2023-11-07T17:24:54.939Z,15.70
2023-11-07T17:27:24.510Z,16.00
2023-11-07T17:29:52.358Z,13.80
2023-11-07T17:32:20.829Z,11.30
2023-11-07T17:34:48.429Z,10.50
2023-11-07T17:37:16.073Z,12.00
2023-11-07T17:39:43.682Z,9.60
2023-11-07T17:42:11.310Z,9.10
2023-11-07T17:44:39.359Z,11.90
2023-11-07T17:47:07.014Z,11.90
2023-11-07T17:49:34.634Z,10.50
2023-11-07T17:52:02.165Z,10.80
2023-11-07T17:54:29.756Z,11.50
2023-11-07T17:56:57.599Z,8.60
2023-11-07T17:59:25.476Z,9.20
2023-11-07T18:01:54.239Z,8.60
2023-11-07T18:04:22.130Z,10.10
2023-11-07T18:06:49.731Z,23.60
2023-11-07T18:09:17.334Z,11.10
2023-11-07T18:11:46.614Z,11.80
2023-11-07T18:14:15.498Z,13.80
2023-11-07T18:16:46.309Z,14.30
2023-11-07T18:19:15.095Z,16.60
2023-11-07T18:21:46.085Z,15.60
2023-11-07T18:24:13.786Z,17.50
2023-11-07T18:26:47.654Z,22.00
2023-11-07T18:29:15.440Z,23.60
2023-11-07T18:31:43.039Z,23.90
2023-11-07T18:34:20.450Z,23.60
2023-11-07T18:37:00.685Z,26.00
2023-11-07T18:39:29.076Z,25.40
2023-11-07T18:41:56.950Z,22.10
2023-11-07T18:44:24.628Z,26.20
2023-11-07T18:46:52.735Z,23.90
2023-11-07T18:49:20.428Z,20.80
2023-11-07T18:51:48.746Z,26.40
2023-11-07T18:54:16.686Z,20.00
2023-11-07T18:56:48.147Z,20.20
2023-11-07T18:59:27.748Z,20.10
2023-11-07T19:02:01.935Z,19.20
2023-11-07T19:04:29.832Z,16.20
2023-11-07T19:06:57.579Z,18.90
2023-11-07T19:09:26.484Z,18.20
2023-11-07T19:11:54.092Z,18.70
2023-11-07T19:14:21.765Z,23.80
2023-11-07T19:16:51.325Z,21.80
2023-11-07T19:19:18.904Z,30.00
2023-11-07T19:21:46.473Z,21.50
2023-11-07T19:24:17.930Z,22.60
2023-11-07T19:26:45.666Z,20.90
2023-11-07T19:29:14.954Z,21.90
2023-11-07T19:31:42.617Z,24.90
2023-11-07T19:34:10.294Z,29.00
2023-11-07T19:36:40.952Z,28.20
2023-11-07T19:39:08.820Z,26.50
2023-11-07T19:41:37.944Z,28.70
2023-11-07T19:44:05.900Z,29.40
2023-11-07T19:46:33.992Z,36.20
2023-11-07T19:49:01.790Z,33.50
2023-11-07T19:51:29.530Z,29.30
2023-11-07T19:53:57.110Z,35.60
2023-11-07T19:56:24.725Z,17.20
2023-11-07T19:58:59.667Z,20.20
2023-11-07T20:01:28.371Z,23.30
2023-11-07T20:03:57.899Z,14.80
2023-11-07T20:06:25.968Z,11.60
2023-11-07T20:08:54.981Z,18.60
2023-11-07T20:11:22.659Z,22.30
2023-11-07T20:13:50.272Z,22.20
2023-11-07T20:16:19.310Z,24.10
2023-11-07T20:18:47.005Z,28.20
2023-11-07T20:21:16.292Z,27.70
2023-11-07T20:23:44.127Z,25.50
2023-11-07T20:26:12.200Z,24.50
2023-11-07T20:28:39.942Z,24.60
2023-11-07T20:31:08.859Z,26.40
2023-11-07T20:33:44.573Z,23.70
2023-11-07T20:36:20.050Z,18.00
2023-11-07T20:38:48.436Z,30.30
2023-11-07T20:41:20.227Z,42.40
2023-11-07T20:43:48.137Z,51.20
2023-11-07T20:46:31.132Z,49.00
2023-11-07T20:49:03.818Z,38.70
2023-11-07T20:51:33.039Z,27.20
2023-11-07T20:54:00.728Z,70.40
2023-11-07T20:56:30.731Z,63.60
2023-11-07T21:09:07.653Z,94.30
2023-11-07T21:11:35.274Z,72.70
2023-11-07T21:14:02.771Z,112.00
2023-11-07T21:16:30.327Z,157.60
2023-11-07T21:19:00.153Z,163.30
2023-11-07T21:21:27.912Z,98.60
2023-11-07T21:23:55.791Z,76.80
2023-11-07T21:26:24.566Z,75.20
2023-11-07T21:28:53.775Z,43.60
2023-11-07T21:31:21.722Z,43.10
2023-11-07T21:33:49.349Z,49.00
2023-11-07T21:36:17.151Z,49.40
2023-11-07T21:38:44.928Z,56.40
2023-11-07T21:41:12.534Z,61.20
2023-11-07T21:43:40.106Z,72.30
2023-11-07T21:46:08.665Z,68.40
2023-11-07T21:48:36.304Z,58.30
2023-11-07T21:51:04.045Z,60.60
2023-11-07T21:53:31.699Z,87.50
2023-11-07T21:55:59.227Z,75.20
2023-11-07T21:58:26.690Z,87.70
2023-11-07T22:00:54.271Z,150.10
2023-11-07T22:03:21.954Z,147.00
2023-11-07T22:05:49.468Z,120.50
2023-11-07T22:08:17.113Z,90.10
2023-11-07T22:10:44.678Z,67.40
2023-11-07T22:13:12.159Z,76.00
2023-11-07T22:15:40.383Z,79.00
2023-11-07T22:18:09.984Z,108.30
2023-11-07T22:20:39.443Z,112.70
2023-11-07T22:23:07.007Z,89.30
2023-11-07T22:25:34.529Z,92.10
2023-11-07T22:28:02.155Z,126.10
2023-11-07T22:30:29.673Z,139.80
2023-11-07T22:32:57.298Z,171.50
2023-11-07T22:35:24.922Z,168.00
2023-11-07T22:37:52.441Z,183.40
2023-11-07T22:40:20.150Z,212.10
2023-11-07T22:42:47.836Z,254.20
2023-11-07T22:45:19.472Z,227.80
2023-11-07T22:47:47.528Z,224.70
2023-11-07T22:50:15.226Z,182.40
2023-11-07T22:52:45.766Z,111.70
2023-11-07T22:55:14.423Z,99.60
2023-11-07T22:57:42.064Z,106.40
2023-11-07T23:00:12.199Z,96.00
2023-11-07T23:02:40.844Z,102.40
2023-11-07T23:05:08.882Z,94.70
2023-11-07T23:07:36.435Z,76.30
2023-11-07T23:10:04.139Z,99.90
2023-11-07T23:12:31.736Z,82.30
2023-11-07T23:14:59.282Z,50.10
2023-11-07T23:17:28.388Z,81.30
2023-11-07T23:19:56.090Z,107.40
2023-11-07T23:22:23.628Z,75.70
2023-11-07T23:24:51.168Z,46.10
2023-11-07T23:27:18.791Z,26.50
2023-11-07T23:29:46.300Z,33.60
2023-11-07T23:32:13.866Z,62.50
2023-11-07T23:34:41.520Z,91.70
2023-11-07T23:37:09.744Z,160.00
2023-11-07T23:39:37.393Z,241.70
2023-11-07T23:42:05.169Z,253.80
2023-11-07T23:44:33.173Z,244.10
2023-11-07T23:47:00.813Z,186.80
2023-11-07T23:49:28.394Z,163.20
2023-11-07T23:51:56.169Z,148.90
2023-11-07T23:54:24.247Z,153.10
2023-11-07T23:56:52.125Z,136.10
2023-11-07T23:59:19.653Z,109.20
